Aérodrome :
LOGIN :

S'inscrire | Disclaimer

   EN    FR    IT 

 










Légende :    VFR   VFR Marginal   IFR   IFR Intensif   IFR Très Intensif
Visi : 
Plafond : 
>= 8 km
>= 3000ft
5 à 8 km
1000 à 3000 ft
1500m à 5 km
500 à 1000 ft
800 à 1500m
200 à 500 ft
< 800m
< 200 ft
Symboles :   Orages  Brouillard  Fortes neiges  Fortes précipitations  Vent > 20 kt
SIGMETs :   Divers  Orages  Givrage  Turbulence  Onde Orograph.  Cendres Volcan.







- Altitude de l'aérodrome : 659 ft
- Code IATA : LYN
- Voir les cartes d'approche


LFLY - Lyon Bron

DERNIER METAR :
  • 210400Z AUTO 04002KT 8000 BKN028 OVC047 13/11 Q1014 TEMPO 4000 BR BKN014

METARs EXPIRÉS :
  • 210330Z AUTO 34001KT 9999 OVC027 13/11 Q1014 TEMPO 4000 BR BKN014
  • 210300Z AUTO 00000KT 9999 OVC029 13/11 Q1014 TEMPO 4000 BR BKN014
  • 210230Z AUTO 03002KT 9999 OVC028 13/11 Q1014 TEMPO 4000 BR BKN014
  • 210200Z AUTO 36003KT 9999 BKN028 BKN049 OVC056 13/11 Q1014 TEMPO 4000 BR BKN014
  • 210130Z AUTO 36002KT 9999 OVC047 14/11 Q1014 TEMPO 4000 BR BKN014

TAF TAF LFLY
Valide du 21 à 00h jusqu'au 22 à 00h UTC


202300Z 2100/2124 VRB01KT 9999 FEW030 BKN045
PROB30
TEMPO 2100/2102 -SHRA SCT040TCU
PROB30
TEMPO 2103/2107 4000 BR BKN014
BECMG 2107/2109 36011KT
TEMPO 2109/2113 -SHRA SCT030TCU
ATIS : +33 4 72 15 87 96
Pas de NOTAMs connus pour ce terrain.
1 SIGMET publié pour la FIR Marseille (LFMM) :
 
Onde orographique forte
LFMM SIGMET 1 VALID 210400/210800 LFPW
LFMM MARSEILLE FIR/UIR SEV MTW FCST E OF E00900 SFC/FL100 STNR NC=



MET'MAP, la Météo Aéronautique d'un coup d'oeil ! - Copyright ORBIFLY Décembre 2007 - Disclaimer

ORBIFLY MET'MAP TEAM :

Programmation & Développement : Alexandra Zaïnal
Conception & Développement : Baudouin d'Aumeries
Co-Programmation & Développement : Marc-Olivier Méhu
Soutien technique & logistique : Manuel Goepfert

Contact : metmap@orbifly.com




SOURCES & CREDITS :

   NOAA